Terminal Aerodrome Forecast
Issued by NWS

Home | Current Version | Previous Version | Text Only | Print | Product List | Glossary Off
Versions: 1 2 3 4 5 6 7 8 9 10 11 12 13 14 15 16 17 18 19

000
FTUS43 KBIS 172200 AAA
TAFJMS
TAF AMD
KJMS 172256Z 1723/1818 17004KT P6SM BKN030
     FM180100 13005KT P6SM VCTS BKN050CB
      TEMPO 1802/1804 3SM TSRA BKN025CB
     FM180600 25007KT P6SM BKN070
     FM181500 31013G20KT P6SM SCT060=

USA.gov is the U.S. government's official web portal to all federal, state and local government web resources and services.